LICRLGKP

Guest
Details From LICR - Reggio Calabria
To LGKP - KARPATHOS
Flight Number -
Tags generated
Created
Modified
Stats Distance 576 nm / 1,067 km
Max Altitude 35,000 ft / 10,668 m
Waypoints 4
Social Downloads 0
Likes 0
Share VATSIM

Download

Looking for another format? Having issues loading an existing format? Contact us
Advertisement - Login to hide

Notes

Basic altitude profile: - Ascent Rate: 2500ft/min - Ascent Speed: 250kts - Cruise Altitude: 35000ft - Cruise Speed: 420kts - Descent Rate: 1500ft/min - Descent Speed: 250kts Options: - Use NATs: no - Use PACOTS: no - Use low airways: no - Use high airways: no

Route

LICR 3700N02000E 3600N02500E LGKP

ID Type Via Altitude Latitude Longitude Leg Dist Tot Dist Heading (true) Name
O LICR APT - 0 ft / 0 m 38.07257˚ 15.64932˚ - 0 nm - Reggio Calabria
3700N02000E LATLON - 35,000 ft / 10,668 m 37.00000˚ 20.00000˚ 216 nm 216 nm 106° / 109° -
3600N02500E LATLON - 23,600 ft / 7,193 m 36.00000˚ 25.00000˚ 248 nm 465 nm 102° / 105° -
O LGKP APT - 0 ft / 0 m 35.42141˚ 27.14601˚ 110 nm 575 nm 108° / 109° KARPATHOS

Altitude Profile

Advertisement - Login to hide

Weather


0- 5 10 15 20 25 30 35+ Temperature / ° C

Clouds and Precipitation
Forecast for 2017-12-13 18:00 UTC. Updated 3 minutes ago

Ground ~20,000 ft ~40,000 ft Winds

LICR

Details ICAO LICR (REG)
Name Reggio Calabria
Region Italy
Timezone Europe/Rome (UTC+1.0)
Stats Elevation 96 ft / 29 m (AMSL)
Location 38.072573° 15.649317°
Runways 2
Magnetic Variation 3.345° E

METAR

LICR 131250Z 36012KT CAVOK 19/09 Q1020

Decode

TAF

TAF LICR 131100Z 1312/1412 35010KT 9999 SCT030 TEMPO 1318/1406 RA

Decode

Departure Runways

ID Width Length Bearing (true) Bearing (mag) Surface Threshold Offset Overrun Length
11 148 ft / 45 m 6,123 ft / 1,866 m 111.76° 108.42° Asphalt 203 ft / 62 m 0 ft / 0 m
15 148 ft / 45 m 6,640 ft / 2,024 m 151.90° 148.56° Asphalt 784 ft / 239 m 0 ft / 0 m
29 148 ft / 45 m 6,123 ft / 1,866 m 291.77° 288.43° Asphalt 157 ft / 48 m 0 ft / 0 m
33 148 ft / 45 m 6,640 ft / 2,024 m 331.90° 328.56° Asphalt 659 ft / 201 m 0 ft / 0 m

LGKP

Details ICAO LGKP (AOK)
Name KARPATHOS
Region Greece
Timezone Europe/Athens (UTC+2.0)
Stats Elevation 66 ft / 20 m (AMSL)
Location 35.421407° 27.146007°
Runways 1
Magnetic Variation 4.589° E

METAR

LGKP 131250Z 30020KT 9999 SCT030 19/13 Q1020

Decode

TAF

Not found

Destination Runways

ID Width Length Bearing (true) Bearing (mag) Surface Threshold Offset Overrun Length
12 98 ft / 30 m 7,866 ft / 2,398 m 124.49° 119.90° Asphalt 492 ft / 150 m 983 ft / 300 m
30 98 ft / 30 m 7,866 ft / 2,398 m 304.50° 299.91° Asphalt 492 ft / 150 m 458 ft / 140 m

Popular Alternatives